Nissos Mykonos — SYJZ — position and weather

sailwx.info

Track history (hours):
 
Tides and Currents Weather Stations Pressure Air Temp Water Temp Dewpoint Dewpoint Depression Visibility Wind Speed Wind Dir Waves Ship Positions

Nissos Mykonos

Last reported at 2014-Jul-30 10:34 UTC. Time now 2014-Jul-30 11:14 UTC.
Position N 37°33' E 025°32'.

Length 141 m; draft 5.6 m.

Type: Passenger vessel. MMSI: 240389000.

Date/timePositionNaut miles runAvg speedWind from/ knotsBaromVisibWave heightAir tempDewpointWater temp
2014-Jul-30 10:34N 37°33' E 025°32'1111.1
2014-Jul-30 09:33N 37°28' E 025°19'1818.0
2014-Jul-30 08:33N 37°26' E 024°57'1919.1
2014-Jul-30 07:33N 37°31' E 024°33'3524.4
2014-Jul-30 06:06N 37°38' E 023°50'1323.3
2014-Jul-30 05:34N 37°47' E 023°39'9 9.3
2014-Jul-30 04:34N 37°57' E 023°38'0 0.0
2014-Jul-30 00:03N 37°57' E 023°38'0 0.0
2014-Jul-29 23:22N 37°57' E 023°38'0 0.0
2014-Jul-29 22:34N 37°57' E 023°38'1515.5
2014-Jul-29 21:34N 37°42' E 023°45'2824.4
2014-Jul-29 20:25N 37°31' E 024°17'2225.2
2014-Jul-29 19:33N 37°31' E 024°44'1111.3
2014-Jul-29 18:32N 37°26' E 024°57'1717.7
2014-Jul-29 17:34N 37°28' E 025°19'2121.0
2014-Jul-29 16:32N 37°31' E 025°46'2424.1
2014-Jul-29 15:33N 37°35' E 026°15'1514.5
2014-Jul-29 14:29N 37°44' E 026°31'9 9.4
2014-Jul-29 13:33N 37°48' E 026°41'2115.1
2014-Jul-29 12:09N 37°37' E 026°18'4322.9
2014-Jul-29 10:15N 37°31' E 025°24'5 6.8
2014-Jul-29 09:33N 37°28' E 025°19'1817.9
2014-Jul-29 08:32N 37°26' E 024°57'5522.2
2014-Jul-29 06:04N 37°39' E 023°49'1223.1
2014-Jul-29 05:34N 37°47' E 023°39'9 9.3
2014-Jul-29 04:33N 37°57' E 023°38'0 0.0
2014-Jul-29 03:33N 37°57' E 023°38'0 0.0
2014-Jul-29 02:33N 37°57' E 023°38'0 0.0
2014-Jul-29 01:33N 37°57' E 023°38'0 0.0
2014-Jul-29 00:33N 37°57' E 023°38'0 0.0
2014-Jul-28 23:33N 37°57' E 023°38'0 0.0
2014-Jul-28 22:33N 37°57' E 023°38'1615.8
2014-Jul-28 21:33N 37°42' E 023°45'3124.0
2014-Jul-28 20:16N 37°31' E 024°22'1824.8
2014-Jul-28 19:33N 37°31' E 024°44'1311.5
2014-Jul-28 18:26N 37°27' E 024°59'1618.2
2014-Jul-28 17:33N 37°28' E 025°19'1919.3
2014-Jul-28 16:33N 37°35' E 025°42'4019.2
2014-Jul-28 14:30N 37°45' E 026°30'23 7.6
2014-Jul-28 11:33N 37°39' E 026°03'2524.8
2014-Jul-28 10:33N 37°33' E 025°33'1212.0
2014-Jul-28 09:34N 37°28' E 025°19'1816.7
2014-Jul-28 08:29N 37°26' E 024°57'2221.2
2014-Jul-28 07:26N 37°31' E 024°29'2124.5
2014-Jul-28 06:33N 37°35' E 024°03'2323.2
2014-Jul-28 05:33N 37°48' E 023°38'9 8.9
2014-Jul-28 04:33N 37°57' E 023°38'0 0.0
2014-Jul-28 03:33N 37°57' E 023°38'0 0.0
2014-Jul-28 02:34N 37°57' E 023°38'0 0.0
2014-Jul-28 01:34N 37°57' E 023°38'0 0.0
2014-Jul-28 00:33N 37°57' E 023°38'0 0.0
2014-Jul-27 23:33N 37°57' E 023°38'1917.9
2014-Jul-27 22:30N 37°40' E 023°49'3224.5
2014-Jul-27 21:12N 37°31' E 024°28'2324.4
2014-Jul-27 20:15N 37°30' E 024°57'710.5
2014-Jul-27 19:34N 37°27' E 025°06'1916.1
2014-Jul-27 18:24N 37°32' E 025°29'2124.9
2014-Jul-27 17:33N 37°37' E 025°54'1817.3
2014-Jul-27 16:32N 37°41' E 026°16'10 4.8
2014-Jul-27 14:29N 37°44' E 026°27'1414.0
2014-Jul-27 13:27N 37°39' E 026°11'3224.8
2014-Jul-27 12:10N 37°33' E 025°30'1118.0
2014-Jul-27 11:34N 37°29' E 025°18'1313.3
2014-Jul-27 10:33N 37°27' E 025°01'1413.7
2014-Jul-27 09:33N 37°31' E 024°45'4924.5
2014-Jul-27 07:33N 37°40' E 023°44'17 2.1
2014-Jul-26 23:33N 37°57' E 023°38'0 0.0
2014-Jul-26 22:34N 37°57' E 023°38'0 0.0
2014-Jul-26 21:33N 37°57' E 023°38'0 0.0
2014-Jul-26 20:33N 37°57' E 023°38'5 5.0
2014-Jul-26 19:34N 37°52' E 023°39'5223.2
2014-Jul-26 17:19N 37°31' E 024°39'1518.9
2014-Jul-26 16:33N 37°26' E 024°57'1616.1
2014-Jul-26 15:34N 37°29' E 025°16'1414.0
2014-Jul-26 14:33N 37°38' E 025°30'2423.2
2014-Jul-26 13:32N 37°39' E 025°60'31 9.6
2014-Jul-26 10:18N 37°32' E 025°22'6 7.7
2014-Jul-26 09:33N 37°27' E 025°18'1716.6
2014-Jul-26 08:32N 37°26' E 024°57'2119.5
2014-Jul-26 07:26N 37°31' E 024°30'3324.8
2014-Jul-26 06:05N 37°38' E 023°49'1323.9
2014-Jul-26 05:33N 37°48' E 023°38'9 8.8
2014-Jul-26 04:33N 37°57' E 023°38'0 0.0
2014-Jul-26 03:33N 37°57' E 023°38'0 0.0
2014-Jul-26 02:33N 37°57' E 023°38'0 0.0
2014-Jul-26 01:33N 37°57' E 023°38'0 0.0
2014-Jul-26 00:33N 37°57' E 023°38'0 0.0
2014-Jul-25 23:33N 37°57' E 023°38'0 0.0
2014-Jul-25 22:33N 37°57' E 023°38'1616.2
2014-Jul-25 21:33N 37°41' E 023°46'3124.0
2014-Jul-25 20:16N 37°32' E 024°23'2724.8
2014-Jul-25 19:10N 37°30' E 024°57'3 4.9
2014-Jul-25 18:30N 37°27' E 024°59'1617.0
2014-Jul-25 17:33N 37°28' E 025°19'2020.3
2014-Jul-25 16:32N 37°35' E 025°43'2318.7
2014-Jul-25 15:17N 37°39' E 026°13'1824.3
2014-Jul-25 14:33N 37°46' E 026°33'5513.8
2014-Jul-25 10:33N 37°32' E 025°26'1211.3
2014-Jul-25 09:31N 37°27' E 025°12'1210.5
2014-Jul-25 08:23N 37°28' E 024°57'2423.4
2014-Jul-25 07:21N 37°31' E 024°27'4223.3
2014-Jul-25 05:34N 37°48' E 023°39'5 0.6
2014-Jul-24 22:04N 37°53' E 023°39'4222.5
2014-Jul-24 20:12N 37°31' E 024°24'1625.1
2014-Jul-24 19:34N 37°31' E 024°44'1111.1
2014-Jul-24 18:32N 37°26' E 024°57'1818.2
2014-Jul-24 17:33N 37°28' E 025°19'1817.6
2014-Jul-24 16:32N 37°34' E 025°41'4119.1
2014-Jul-24 14:25N 37°45' E 026°30'5312.8
2014-Jul-24 10:19N 37°32' E 025°26'7 8.8
2014-Jul-24 09:33N 37°28' E 025°19'1814.4
2014-Jul-24 08:19N 37°30' E 024°57'2224.3
2014-Jul-24 07:24N 37°31' E 024°29'4323.3
2014-Jul-24 05:34N 37°48' E 023°39'9 9.1
2014-Jul-24 04:33N 37°57' E 023°38'0 0.0
2014-Jul-24 03:33N 37°57' E 023°38'0 0.0
2014-Jul-24 02:33N 37°57' E 023°38'0 0.0
2014-Jul-24 01:33N 37°57' E 023°38'0 0.0
2014-Jul-24 00:33N 37°57' E 023°38'0 0.0
2014-Jul-23 23:33N 37°57' E 023°38'0 0.0
2014-Jul-23 22:33N 37°57' E 023°38'2317.5
2014-Jul-23 21:15N 37°38' E 023°54'2023.8
2014-Jul-23 20:24N 37°31' E 024°18'2124.6
2014-Jul-23 19:34N 37°31' E 024°44'1111.0
2014-Jul-23 18:33N 37°26' E 024°57'1817.9
2014-Jul-23 17:33N 37°28' E 025°19'10 1.4
2014-Jul-23 10:29N 37°32' E 025°30'1010.4
2014-Jul-23 09:32N 37°27' E 025°19'1817.1
2014-Jul-23 08:29N 37°26' E 024°57'2021.1
2014-Jul-23 07:31N 37°32' E 024°32'4523.1
2014-Jul-23 05:33N 37°48' E 023°39'9 1.8
2014-Jul-23 00:33N 37°57' E 023°38'0 0.0
2014-Jul-22 23:33N 37°57' E 023°38'0 0.0
2014-Jul-22 22:33N 37°57' E 023°38'0 0.0
2014-Jul-22 21:33N 37°57' E 023°38'0 0.0
2014-Jul-22 20:33N 37°57' E 023°38'4 4.5
2014-Jul-22 19:34N 37°52' E 023°39'2423.7
2014-Jul-22 18:33N 37°36' E 024°01'2524.5
2014-Jul-22 17:32N 37°31' E 024°32'2019.9
2014-Jul-22 16:31N 37°26' E 024°57'1414.2
2014-Jul-22 15:34N 37°27' E 025°14'1312.7
2014-Jul-22 14:33N 37°31' E 025°29'2525.2
2014-Jul-22 13:33N 37°30' E 026°00'24 8.0
2014-Jul-22 10:34N 37°31' E 025°30'10 9.4
2014-Jul-22 09:33N 37°28' E 025°19'1817.8
2014-Jul-22 08:32N 37°26' E 024°57'1919.1
2014-Jul-22 07:34N 37°31' E 024°34'2724.9
2014-Jul-22 06:29N 37°35' E 024°00'2223.1
2014-Jul-22 05:33N 37°48' E 023°38'9 8.9
2014-Jul-22 04:33N 37°57' E 023°38'0 0.0
2014-Jul-22 03:33N 37°57' E 023°38'0 0.0
2014-Jul-22 02:33N 37°57' E 023°38'0 0.0
2014-Jul-22 01:33N 37°57' E 023°38'0 0.0
2014-Jul-22 00:33N 37°57' E 023°38'0 0.0
2014-Jul-21 23:33N 37°57' E 023°38'0 0.0
2014-Jul-21 22:33N 37°57' E 023°38'1615.9
2014-Jul-21 21:33N 37°41' E 023°45'3324.5
2014-Jul-21 20:13N 37°31' E 024°24'1725.1
2014-Jul-21 19:33N 37°31' E 024°45'1311.5
2014-Jul-21 18:23N 37°27' E 025°01'1517.3
2014-Jul-21 17:33N 37°28' E 025°19'2319.1
2014-Jul-21 16:21N 37°38' E 025°45'3318.3
2014-Jul-21 14:33N 37°44' E 026°26'24 7.9
2014-Jul-21 11:32N 37°39' E 025°56'2922.4
2014-Jul-21 10:15N 37°32' E 025°21'5 7.6
2014-Jul-21 09:33N 37°28' E 025°18'1717.1
2014-Jul-21 08:33N 37°26' E 024°57'6621.9
2014-Jul-21 05:33N 37°48' E 023°38'7 1.0
2014-Jul-20 22:16N 37°55' E 023°37'4621.6
2014-Jul-20 20:09N 37°32' E 024°27'2424.6
2014-Jul-20 19:10N 37°30' E 024°57'5 6.6
2014-Jul-20 18:26N 37°28' E 025°02'1315.5
2014-Jul-20 17:33N 37°28' E 025°19'2019.6
2014-Jul-20 16:34N 37°40' E 025°39'2717.8
2014-Jul-20 15:04N 37°39' E 026°13'  
Track history (hours):
 
Tides and Currents Weather Stations Pressure Air Temp Water Temp Dewpoint Dewpoint Depression Visibility Wind Speed Wind Dir Waves Ship Positions

Nissos Mykonos

Last reported at 2014-Jul-30 10:34 UTC. Time now 2014-Jul-30 11:14 UTC.
Position N 37°33' E 025°32'.

Length 141 m; draft 5.6 m.

Type: Passenger vessel. MMSI: 240389000.

Date/timePositionNaut miles runAvg speedWind from/ knotsBaromVisibWave heightAir tempDewpointWater temp
2014-Jul-30 10:34N 37°33' E 025°32'1111.1
2014-Jul-30 09:33N 37°28' E 025°19'1818.0
2014-Jul-30 08:33N 37°26' E 024°57'1919.1
2014-Jul-30 07:33N 37°31' E 024°33'3524.4
2014-Jul-30 06:06N 37°38' E 023°50'1323.3
2014-Jul-30 05:34N 37°47' E 023°39'9 9.3
2014-Jul-30 04:34N 37°57' E 023°38'0 0.0
2014-Jul-30 00:03N 37°57' E 023°38'0 0.0
2014-Jul-29 23:22N 37°57' E 023°38'0 0.0
2014-Jul-29 22:34N 37°57' E 023°38'1515.5
2014-Jul-29 21:34N 37°42' E 023°45'2824.4
2014-Jul-29 20:25N 37°31' E 024°17'2225.2
2014-Jul-29 19:33N 37°31' E 024°44'1111.3
2014-Jul-29 18:32N 37°26' E 024°57'1717.7
2014-Jul-29 17:34N 37°28' E 025°19'2121.0
2014-Jul-29 16:32N 37°31' E 025°46'2424.1
2014-Jul-29 15:33N 37°35' E 026°15'1514.5
2014-Jul-29 14:29N 37°44' E 026°31'9 9.4
2014-Jul-29 13:33N 37°48' E 026°41'2115.1
2014-Jul-29 12:09N 37°37' E 026°18'4322.9
2014-Jul-29 10:15N 37°31' E 025°24'5 6.8
2014-Jul-29 09:33N 37°28' E 025°19'1817.9
2014-Jul-29 08:32N 37°26' E 024°57'5522.2
2014-Jul-29 06:04N 37°39' E 023°49'1223.1
2014-Jul-29 05:34N 37°47' E 023°39'9 9.3
2014-Jul-29 04:33N 37°57' E 023°38'0 0.0
2014-Jul-29 03:33N 37°57' E 023°38'0 0.0
2014-Jul-29 02:33N 37°57' E 023°38'0 0.0
2014-Jul-29 01:33N 37°57' E 023°38'0 0.0
2014-Jul-29 00:33N 37°57' E 023°38'0 0.0
2014-Jul-28 23:33N 37°57' E 023°38'0 0.0
2014-Jul-28 22:33N 37°57' E 023°38'1615.8
2014-Jul-28 21:33N 37°42' E 023°45'3124.0
2014-Jul-28 20:16N 37°31' E 024°22'1824.8
2014-Jul-28 19:33N 37°31' E 024°44'1311.5
2014-Jul-28 18:26N 37°27' E 024°59'1618.2
2014-Jul-28 17:33N 37°28' E 025°19'1919.3
2014-Jul-28 16:33N 37°35' E 025°42'4019.2
2014-Jul-28 14:30N 37°45' E 026°30'23 7.6
2014-Jul-28 11:33N 37°39' E 026°03'2524.8
2014-Jul-28 10:33N 37°33' E 025°33'1212.0
2014-Jul-28 09:34N 37°28' E 025°19'1816.7
2014-Jul-28 08:29N 37°26' E 024°57'2221.2
2014-Jul-28 07:26N 37°31' E 024°29'2124.5
2014-Jul-28 06:33N 37°35' E 024°03'2323.2
2014-Jul-28 05:33N 37°48' E 023°38'9 8.9
2014-Jul-28 04:33N 37°57' E 023°38'0 0.0
2014-Jul-28 03:33N 37°57' E 023°38'0 0.0
2014-Jul-28 02:34N 37°57' E 023°38'0 0.0
2014-Jul-28 01:34N 37°57' E 023°38'0 0.0
2014-Jul-28 00:33N 37°57' E 023°38'0 0.0
2014-Jul-27 23:33N 37°57' E 023°38'1917.9
2014-Jul-27 22:30N 37°40' E 023°49'3224.5
2014-Jul-27 21:12N 37°31' E 024°28'2324.4
2014-Jul-27 20:15N 37°30' E 024°57'710.5
2014-Jul-27 19:34N 37°27' E 025°06'1916.1
2014-Jul-27 18:24N 37°32' E 025°29'2124.9
2014-Jul-27 17:33N 37°37' E 025°54'1817.3
2014-Jul-27 16:32N 37°41' E 026°16'10 4.8
2014-Jul-27 14:29N 37°44' E 026°27'1414.0
2014-Jul-27 13:27N 37°39' E 026°11'3224.8
2014-Jul-27 12:10N 37°33' E 025°30'1118.0
2014-Jul-27 11:34N 37°29' E 025°18'1313.3
2014-Jul-27 10:33N 37°27' E 025°01'1413.7
2014-Jul-27 09:33N 37°31' E 024°45'4924.5
2014-Jul-27 07:33N 37°40' E 023°44'17 2.1
2014-Jul-26 23:33N 37°57' E 023°38'0 0.0
2014-Jul-26 22:34N 37°57' E 023°38'0 0.0
2014-Jul-26 21:33N 37°57' E 023°38'0 0.0
2014-Jul-26 20:33N 37°57' E 023°38'5 5.0
2014-Jul-26 19:34N 37°52' E 023°39'5223.2
2014-Jul-26 17:19N 37°31' E 024°39'1518.9
2014-Jul-26 16:33N 37°26' E 024°57'1616.1
2014-Jul-26 15:34N 37°29' E 025°16'1414.0
2014-Jul-26 14:33N 37°38' E 025°30'2423.2
2014-Jul-26 13:32N 37°39' E 025°60'31 9.6
2014-Jul-26 10:18N 37°32' E 025°22'6 7.7
2014-Jul-26 09:33N 37°27' E 025°18'1716.6
2014-Jul-26 08:32N 37°26' E 024°57'2119.5
2014-Jul-26 07:26N 37°31' E 024°30'3324.8
2014-Jul-26 06:05N 37°38' E 023°49'1323.9
2014-Jul-26 05:33N 37°48' E 023°38'9 8.8
2014-Jul-26 04:33N 37°57' E 023°38'0 0.0
2014-Jul-26 03:33N 37°57' E 023°38'0 0.0
2014-Jul-26 02:33N 37°57' E 023°38'0 0.0
2014-Jul-26 01:33N 37°57' E 023°38'0 0.0
2014-Jul-26 00:33N 37°57' E 023°38'0 0.0
2014-Jul-25 23:33N 37°57' E 023°38'0 0.0
2014-Jul-25 22:33N 37°57' E 023°38'1616.2
2014-Jul-25 21:33N 37°41' E 023°46'3124.0
2014-Jul-25 20:16N 37°32' E 024°23'2724.8
2014-Jul-25 19:10N 37°30' E 024°57'3 4.9
2014-Jul-25 18:30N 37°27' E 024°59'1617.0
2014-Jul-25 17:33N 37°28' E 025°19'2020.3
2014-Jul-25 16:32N 37°35' E 025°43'2318.7
2014-Jul-25 15:17N 37°39' E 026°13'1824.3
2014-Jul-25 14:33N 37°46' E 026°33'5513.8
2014-Jul-25 10:33N 37°32' E 025°26'1211.3
2014-Jul-25 09:31N 37°27' E 025°12'1210.5
2014-Jul-25 08:23N 37°28' E 024°57'2423.4
2014-Jul-25 07:21N 37°31' E 024°27'4223.3
2014-Jul-25 05:34N 37°48' E 023°39'5 0.6
2014-Jul-24 22:04N 37°53' E 023°39'4222.5
2014-Jul-24 20:12N 37°31' E 024°24'1625.1
2014-Jul-24 19:34N 37°31' E 024°44'1111.1
2014-Jul-24 18:32N 37°26' E 024°57'1818.2
2014-Jul-24 17:33N 37°28' E 025°19'1817.6
2014-Jul-24 16:32N 37°34' E 025°41'4119.1
2014-Jul-24 14:25N 37°45' E 026°30'5312.8
2014-Jul-24 10:19N 37°32' E 025°26'7 8.8
2014-Jul-24 09:33N 37°28' E 025°19'1814.4
2014-Jul-24 08:19N 37°30' E 024°57'2224.3
2014-Jul-24 07:24N 37°31' E 024°29'4323.3
2014-Jul-24 05:34N 37°48' E 023°39'9 9.1
2014-Jul-24 04:33N 37°57' E 023°38'0 0.0
2014-Jul-24 03:33N 37°57' E 023°38'0 0.0
2014-Jul-24 02:33N 37°57' E 023°38'0 0.0
2014-Jul-24 01:33N 37°57' E 023°38'0 0.0
2014-Jul-24 00:33N 37°57' E 023°38'0 0.0
2014-Jul-23 23:33N 37°57' E 023°38'0 0.0
2014-Jul-23 22:33N 37°57' E 023°38'2317.5
2014-Jul-23 21:15N 37°38' E 023°54'2023.8
2014-Jul-23 20:24N 37°31' E 024°18'2124.6
2014-Jul-23 19:34N 37°31' E 024°44'1111.0
2014-Jul-23 18:33N 37°26' E 024°57'1817.9
2014-Jul-23 17:33N 37°28' E 025°19'10 1.4
2014-Jul-23 10:29N 37°32' E 025°30'1010.4
2014-Jul-23 09:32N 37°27' E 025°19'1817.1
2014-Jul-23 08:29N 37°26' E 024°57'2021.1
2014-Jul-23 07:31N 37°32' E 024°32'4523.1
2014-Jul-23 05:33N 37°48' E 023°39'9 1.8
2014-Jul-23 00:33N 37°57' E 023°38'0 0.0
2014-Jul-22 23:33N 37°57' E 023°38'0 0.0
2014-Jul-22 22:33N 37°57' E 023°38'0 0.0
2014-Jul-22 21:33N 37°57' E 023°38'0 0.0
2014-Jul-22 20:33N 37°57' E 023°38'4 4.5
2014-Jul-22 19:34N 37°52' E 023°39'2423.7
2014-Jul-22 18:33N 37°36' E 024°01'2524.5
2014-Jul-22 17:32N 37°31' E 024°32'2019.9
2014-Jul-22 16:31N 37°26' E 024°57'1414.2
2014-Jul-22 15:34N 37°27' E 025°14'1312.7
2014-Jul-22 14:33N 37°31' E 025°29'2525.2
2014-Jul-22 13:33N 37°30' E 026°00'24 8.0
2014-Jul-22 10:34N 37°31' E 025°30'10 9.4
2014-Jul-22 09:33N 37°28' E 025°19'1817.8
2014-Jul-22 08:32N 37°26' E 024°57'1919.1
2014-Jul-22 07:34N 37°31' E 024°34'2724.9
2014-Jul-22 06:29N 37°35' E 024°00'2223.1
2014-Jul-22 05:33N 37°48' E 023°38'9 8.9
2014-Jul-22 04:33N 37°57' E 023°38'0 0.0
2014-Jul-22 03:33N 37°57' E 023°38'0 0.0
2014-Jul-22 02:33N 37°57' E 023°38'0 0.0
2014-Jul-22 01:33N 37°57' E 023°38'0 0.0
2014-Jul-22 00:33N 37°57' E 023°38'0 0.0
2014-Jul-21 23:33N 37°57' E 023°38'0 0.0
2014-Jul-21 22:33N 37°57' E 023°38'1615.9
2014-Jul-21 21:33N 37°41' E 023°45'3324.5
2014-Jul-21 20:13N 37°31' E 024°24'1725.1
2014-Jul-21 19:33N 37°31' E 024°45'1311.5
2014-Jul-21 18:23N 37°27' E 025°01'1517.3
2014-Jul-21 17:33N 37°28' E 025°19'2319.1
2014-Jul-21 16:21N 37°38' E 025°45'3318.3
2014-Jul-21 14:33N 37°44' E 026°26'24 7.9
2014-Jul-21 11:32N 37°39' E 025°56'2922.4
2014-Jul-21 10:15N 37°32' E 025°21'5 7.6
2014-Jul-21 09:33N 37°28' E 025°18'1717.1
2014-Jul-21 08:33N 37°26' E 024°57'6621.9
2014-Jul-21 05:33N 37°48' E 023°38'7 1.0
2014-Jul-20 22:16N 37°55' E 023°37'4621.6
2014-Jul-20 20:09N 37°32' E 024°27'2424.6
2014-Jul-20 19:10N 37°30' E 024°57'5 6.6
2014-Jul-20 18:26N 37°28' E 025°02'1315.5
2014-Jul-20 17:33N 37°28' E 025°19'2019.6
2014-Jul-20 16:34N 37°40' E 025°39'2717.8
2014-Jul-20 15:04N 37°39' E 026°13'  

Dump ship's entire track history